25NK weather

Loucks Airport
Hammondsport, New York, United States

Public forecast

Using degrees Fahrenheit for public forecast. Weather courtesy of forecast.io.

METAR (pilot weather report)

Closest report is Penn Yan Airport, 12.6 nm (23.3 km) NNE. Retrieved 2019/07/17 02:53 UTC (56 minutes ago):

KPEO 170253Z AUTO 21006KT 10SM BKN080 OVC100 23/21 A3000 RMK AO2 SLP152 60001 T02280206 58001

TAF (pilot weather forecast)

Forecast is more than 12 hours old.

Closest forecast is Elmira Corning Regional Airport, 19.7 nm (36.5 km) SSE. Retrieved 2019/07/16 00:24 UTC (1 day ago):

TAF KELM 162321Z 1700/1724 VRB03KT P6SM BKN080 TEMPO 1700/1703 5SM -TSRA OVC025CB FM171300 23005KT 4SM -SHRA BR OVC025 FM171700 23005KT P6SM -SHRA OVC025